Time,TemperatureF,DewpointF,PressureIn,WindDirection,WindDirectionDegrees,WindSpeedMPH,WindSpeedGustMPH,Humidity,HourlyPrecipIn,Conditions,Clouds,dailyrainin,SoftwareType,DateUTC
2013-09-29 00:05:00,48.6,26.4,30.09,SSW,211,8.0,17.0,42,0.00,,,0.00,meteohub,2013-09-29 06:05:00,
2013-09-29 00:11:00,47.1,25.7,30.09,SSW,212,7.0,17.0,43,0.00,,,0.00,meteohub,2013-09-29 06:11:00,
2013-09-29 00:17:00,46.4,26.2,30.09,SSW,212,6.0,17.0,45,0.00,,,0.00,meteohub,2013-09-29 06:17:00,
2013-09-29 00:23:00,45.7,26.1,30.09,SSW,211,6.0,9.0,46,0.00,,,0.00,meteohub,2013-09-29 06:23:00,
2013-09-29 00:29:00,45.9,26.8,30.09,SSW,212,6.0,8.0,47,0.00,,,0.00,meteohub,2013-09-29 06:29:00,
2013-09-29 00:35:00,46.8,27.1,30.09,SW,224,11.0,12.0,46,0.00,,,0.00,meteohub,2013-09-29 06:35:00,
2013-09-29 00:41:00,46.9,27.3,30.09,SW,218,10.0,12.0,46,0.00,,,0.00,meteohub,2013-09-29 06:41:00,
2013-09-29 00:47:00,47.5,27.7,30.08,SW,222,6.0,15.0,46,0.00,,,0.00,meteohub,2013-09-29 06:47:00,
2013-09-29 00:53:00,46.2,26.6,30.08,SW,220,4.0,15.0,46,0.00,,,0.00,meteohub,2013-09-29 06:53:00,
2013-09-29 01:00:00,45.0,26.4,30.08,SW,220,4.0,15.0,48,0.00,,,0.00,meteohub,2013-09-29 07:00:00,
2013-09-29 01:06:00,44.2,26.8,30.08,SW,219,7.0,10.0,50,0.00,,,0.00,meteohub,2013-09-29 07:06:00,
2013-09-29 01:12:00,43.9,26.4,30.08,SW,219,4.0,9.0,50,0.00,,,0.00,meteohub,2013-09-29 07:12:00,
2013-09-29 01:18:00,43.3,27.0,30.08,SW,219,4.0,9.0,52,0.00,,,0.00,meteohub,2013-09-29 07:18:00,
2013-09-29 01:24:00,43.3,27.3,30.08,SW,220,3.0,9.0,53,0.00,,,0.00,meteohub,2013-09-29 07:24:00,
2013-09-29 01:30:00,44.4,27.5,30.08,SW,230,10.0,10.0,51,0.00,,,0.00,meteohub,2013-09-29 07:30:00,
2013-09-29 01:36:00,45.7,27.7,30.08,WSW,239,6.0,12.0,49,0.00,,,0.00,meteohub,2013-09-29 07:36:00,
2013-09-29 01:42:00,46.2,27.7,30.07,WSW,239,4.0,12.0,48,0.00,,,0.00,meteohub,2013-09-29 07:42:00,
2013-09-29 01:48:00,46.2,27.7,30.07,WSW,243,4.0,10.0,48,0.00,,,0.00,meteohub,2013-09-29 07:48:00,
2013-09-29 01:54:00,46.0,27.5,30.06,WSW,256,7.0,10.0,48,0.00,,,0.00,meteohub,2013-09-29 07:54:00,
2013-09-29 02:00:00,46.0,27.5,30.06,WSW,253,8.0,9.0,48,0.00,,,0.00,meteohub,2013-09-29 08:00:00,
2013-09-29 02:06:00,46.4,27.3,30.06,WSW,249,8.0,11.0,47,0.00,,,0.00,meteohub,2013-09-29 08:06:00,
2013-09-29 02:12:00,46.6,27.0,30.06,WSW,245,9.0,11.0,46,0.00,,,0.00,meteohub,2013-09-29 08:12:00,
2013-09-29 02:18:00,46.6,27.0,30.06,WSW,247,5.0,11.0,46,0.00,,,0.00,meteohub,2013-09-29 08:18:00,
2013-09-29 02:24:00,46.0,27.0,30.05,WSW,247,6.0,11.0,47,0.00,,,0.00,meteohub,2013-09-29 08:24:00,
2013-09-29 02:30:00,45.9,26.8,30.05,WSW,247,6.0,10.0,47,0.00,,,0.00,meteohub,2013-09-29 08:30:00,
2013-09-29 02:36:00,45.7,26.6,30.05,WSW,247,7.0,8.0,47,0.00,,,0.00,meteohub,2013-09-29 08:36:00,
2013-09-29 02:42:00,45.7,26.6,30.05,WSW,237,4.0,11.0,47,0.00,,,0.00,meteohub,2013-09-29 08:42:00,
2013-09-29 02:48:00,45.9,25.7,30.04,WSW,242,8.0,11.0,45,0.00,,,0.00,meteohub,2013-09-29 08:48:00,
2013-09-29 02:54:00,46.2,25.5,30.04,WSW,239,6.0,12.0,44,0.00,,,0.00,meteohub,2013-09-29 08:54:00,
2013-09-29 03:00:00,46.4,24.6,30.04,WSW,238,6.0,12.0,42,0.00,,,0.00,meteohub,2013-09-29 09:00:00,
2013-09-29 03:06:00,46.2,24.4,30.04,WSW,238,6.0,11.0,42,0.00,,,0.00,meteohub,2013-09-29 09:06:00,
2013-09-29 03:12:00,46.0,24.3,30.04,SW,234,5.0,11.0,42,0.00,,,0.00,meteohub,2013-09-29 09:12:00,
2013-09-29 03:18:00,46.0,23.7,30.04,SW,230,5.0,11.0,41,0.00,,,0.00,meteohub,2013-09-29 09:18:00,
2013-09-29 03:24:00,46.0,23.7,30.04,SW,230,6.0,12.0,41,0.00,,,0.00,meteohub,2013-09-29 09:24:00,
2013-09-29 03:30:00,46.0,22.5,30.04,SW,229,4.0,12.0,39,0.00,,,0.00,meteohub,2013-09-29 09:30:00,
2013-09-29 03:36:00,46.0,21.9,30.04,SW,229,4.0,10.0,38,0.00,,,0.00,meteohub,2013-09-29 09:36:00,
2013-09-29 03:42:00,46.0,21.9,30.04,SW,230,9.0,10.0,38,0.00,,,0.00,meteohub,2013-09-29 09:42:00,
2013-09-29 03:48:00,46.2,21.9,30.03,WSW,239,6.0,11.0,38,0.00,,,0.00,meteohub,2013-09-29 09:48:00,
2013-09-29 03:54:00,45.9,21.7,30.04,WSW,239,3.0,13.0,38,0.00,,,0.00,meteohub,2013-09-29 09:54:00,
2013-09-29 04:00:00,45.5,21.4,30.03,WSW,239,5.0,11.0,38,0.00,,,0.00,meteohub,2013-09-29 10:00:00,
2013-09-29 04:06:00,45.3,21.7,30.03,WSW,241,9.0,11.0,39,0.00,,,0.00,meteohub,2013-09-29 10:06:00,
2013-09-29 04:12:00,45.3,21.2,30.03,WSW,242,3.0,11.0,38,0.00,,,0.00,meteohub,2013-09-29 10:12:00,
2013-09-29 04:18:00,45.3,20.7,30.03,WSW,245,6.0,11.0,37,0.00,,,0.00,meteohub,2013-09-29 10:18:00,
2013-09-29 04:25:00,45.1,20.5,30.03,WSW,245,6.0,10.0,37,0.00,,,0.00,meteohub,2013-09-29 10:25:00,
2013-09-29 04:31:00,45.1,20.5,30.03,WSW,243,4.0,10.0,37,0.00,,,0.00,meteohub,2013-09-29 10:31:00,
2013-09-29 04:37:00,45.1,20.5,30.03,WSW,243,1.0,10.0,37,0.00,,,0.00,meteohub,2013-09-29 10:37:00,
2013-09-29 04:43:00,44.4,21.0,30.03,WSW,243,2.0,10.0,39,0.00,,,0.00,meteohub,2013-09-29 10:43:00,
2013-09-29 04:49:00,42.8,20.7,30.03,WSW,243,3.0,8.0,41,0.00,,,0.00,meteohub,2013-09-29 10:49:00,
2013-09-29 04:55:00,41.4,23.2,30.03,WSW,243,4.0,5.0,48,0.00,,,0.00,meteohub,2013-09-29 10:55:00,
2013-09-29 05:01:00,41.0,23.7,30.03,WSW,244,4.0,5.0,50,0.00,,,0.00,meteohub,2013-09-29 11:01:00,
2013-09-29 05:07:00,40.6,23.0,30.03,West,277,5.0,6.0,49,0.00,,,0.00,meteohub,2013-09-29 11:07:00,
2013-09-29 05:13:00,40.8,22.6,30.03,NW,305,3.0,6.0,48,0.00,,,0.00,meteohub,2013-09-29 11:13:00,
2013-09-29 05:19:00,40.8,22.6,30.03,NW,305,2.0,6.0,48,0.00,,,0.00,meteohub,2013-09-29 11:19:00,
2013-09-29 05:25:00,40.6,21.9,30.03,NW,305,0.0,6.0,47,0.00,,,0.00,meteohub,2013-09-29 11:25:00,
2013-09-29 05:31:00,40.6,21.9,30.03,NW,305,0.0,4.0,47,0.00,,,0.00,meteohub,2013-09-29 11:31:00,
2013-09-29 05:37:00,40.6,21.6,30.02,NW,305,0.0,2.0,46,0.00,,,0.00,meteohub,2013-09-29 11:37:00,
2013-09-29 05:43:00,40.5,21.4,30.02,NW,305,5.0,5.0,46,0.00,,,0.00,meteohub,2013-09-29 11:43:00,
2013-09-29 05:49:00,41.2,21.4,30.02,WNW,302,4.0,6.0,45,0.00,,,0.00,meteohub,2013-09-29 11:49:00,
2013-09-29 05:55:00,41.7,21.4,30.02,WNW,301,2.0,6.0,44,0.00,,,0.00,meteohub,2013-09-29 11:55:00,
2013-09-29 06:01:00,42.1,21.7,30.02,WNW,301,0.0,7.0,44,0.00,,,0.00,meteohub,2013-09-29 12:01:00,
2013-09-29 06:07:00,41.7,20.8,30.01,WNW,301,0.0,6.0,43,0.00,,,0.00,meteohub,2013-09-29 12:07:00,
2013-09-29 06:13:00,41.4,21.0,30.01,WNW,301,3.0,4.0,44,0.00,,,0.00,meteohub,2013-09-29 12:13:00,
2013-09-29 06:19:00,41.0,21.7,30.01,WNW,301,3.0,5.0,46,0.00,,,0.00,meteohub,2013-09-29 12:19:00,
2013-09-29 06:25:00,40.6,21.9,30.01,WNW,301,4.0,5.0,47,0.00,,,0.00,meteohub,2013-09-29 12:25:00,
2013-09-29 06:31:00,40.3,22.1,30.01,WNW,301,2.0,5.0,48,0.00,,,0.00,meteohub,2013-09-29 12:31:00,
2013-09-29 06:37:00,39.7,22.1,30.01,WNW,301,3.0,5.0,49,0.00,,,0.00,meteohub,2013-09-29 12:37:00,
2013-09-29 06:43:00,39.2,22.1,30.01,WNW,301,3.0,5.0,50,0.00,,,0.00,meteohub,2013-09-29 12:43:00,
2013-09-29 06:49:00,39.0,21.9,30.01,WNW,302,4.0,5.0,50,0.00,,,0.00,meteohub,2013-09-29 12:49:00,
2013-09-29 06:55:00,38.8,21.7,30.02,WNW,303,4.0,6.0,50,0.00,,,0.00,meteohub,2013-09-29 12:55:00,
2013-09-29 07:01:00,38.8,22.3,30.02,NW,307,3.0,6.0,51,0.00,,,0.00,meteohub,2013-09-29 13:01:00,
2013-09-29 07:07:00,38.8,21.7,30.02,NW,307,3.0,6.0,50,0.00,,,0.00,meteohub,2013-09-29 13:07:00,
2013-09-29 07:13:00,39.4,22.3,30.01,NW,307,0.0,6.0,50,0.00,,,0.00,meteohub,2013-09-29 13:13:00,
2013-09-29 07:19:00,39.9,22.8,30.02,NW,307,1.0,5.0,50,0.00,,,0.00,meteohub,2013-09-29 13:19:00,
2013-09-29 07:25:00,40.6,23.0,30.01,NW,307,3.0,3.0,49,0.00,,,0.00,meteohub,2013-09-29 13:25:00,
2013-09-29 07:31:00,41.5,23.4,30.01,NW,307,3.0,4.0,48,0.00,,,0.00,meteohub,2013-09-29 13:31:00,
2013-09-29 07:37:00,42.8,23.0,30.01,NW,307,4.0,6.0,45,0.00,,,0.00,meteohub,2013-09-29 13:37:00,
2013-09-29 07:43:00,44.1,22.5,30.01,NW,322,2.0,6.0,42,0.00,,,0.00,meteohub,2013-09-29 13:43:00,
2013-09-29 07:49:00,45.1,22.8,30.01,North,356,5.0,6.0,41,0.00,,,0.00,meteohub,2013-09-29 13:49:00,
2013-09-29 07:55:00,45.9,23.5,30.01,NNE,23,3.0,9.0,41,0.00,,,0.00,meteohub,2013-09-29 13:55:00,
2013-09-29 08:02:00,46.4,23.9,30.01,NNE,23,5.0,9.0,41,0.00,,,0.00,meteohub,2013-09-29 14:02:00,
2013-09-29 08:08:00,46.6,24.1,30.01,NNE,27,3.0,9.0,41,0.00,,,0.00,meteohub,2013-09-29 14:08:00,
2013-09-29 08:14:00,47.1,24.1,30.01,NNE,27,2.0,8.0,40,0.00,,,0.00,meteohub,2013-09-29 14:14:00,
2013-09-29 08:20:00,47.8,22.8,30.01,NNE,32,0.0,8.0,37,0.00,,,0.00,meteohub,2013-09-29 14:20:00,
2013-09-29 08:26:00,48.6,22.8,30.00,North,0,3.0,8.0,36,0.00,,,0.00,meteohub,2013-09-29 14:26:00,
2013-09-29 08:32:00,49.8,15.4,30.00,SW,226,7.0,9.0,25,0.00,,,0.00,meteohub,2013-09-29 14:32:00,
2013-09-29 08:38:00,51.8,13.1,30.00,SW,232,7.0,9.0,21,0.00,,,0.00,meteohub,2013-09-29 14:38:00,
2013-09-29 08:44:00,52.7,16.9,30.00,WSW,253,3.0,12.0,24,0.00,,,0.00,meteohub,2013-09-29 14:44:00,
2013-09-29 08:50:00,52.9,23.9,30.00,ENE,64,2.0,12.0,32,0.00,,,0.00,meteohub,2013-09-29 14:50:00,
2013-09-29 08:56:00,52.0,14.4,30.00,WSW,244,5.0,7.0,22,0.00,,,0.00,meteohub,2013-09-29 14:56:00,
2013-09-29 09:02:00,53.2,16.3,30.00,WSW,252,5.0,11.0,23,0.00,,,0.00,meteohub,2013-09-29 15:02:00,
2013-09-29 09:08:00,54.7,13.3,29.99,SW,223,10.0,11.0,19,0.00,,,0.00,meteohub,2013-09-29 15:08:00,
2013-09-29 09:14:00,54.7,13.3,29.99,SW,219,16.0,16.0,19,0.00,,,0.00,meteohub,2013-09-29 15:14:00,
2013-09-29 09:20:00,54.9,13.3,29.99,WSW,255,11.0,19.0,19,0.00,,,0.00,meteohub,2013-09-29 15:20:00,
2013-09-29 09:26:00,55.2,12.4,29.98,SW,224,12.0,19.0,18,0.00,,,0.00,meteohub,2013-09-29 15:26:00,
2013-09-29 09:32:00,55.4,13.8,29.99,WSW,241,11.0,21.0,19,0.00,,,0.00,meteohub,2013-09-29 15:32:00,
2013-09-29 09:38:00,56.3,15.8,29.98,West,261,10.0,22.0,20,0.00,,,0.00,meteohub,2013-09-29 15:38:00,
2013-09-29 09:44:00,56.8,17.2,29.98,WSW,252,14.0,22.0,21,0.00,,,0.00,meteohub,2013-09-29 15:44:00,
2013-09-29 09:51:00,56.7,16.0,29.98,WSW,243,10.0,21.0,20,0.00,,,0.00,meteohub,2013-09-29 15:51:00,
2013-09-29 09:57:00,56.7,16.0,29.97,WSW,249,9.0,23.0,20,0.00,,,0.00,meteohub,2013-09-29 15:57:00,
2013-09-29 10:02:00,56.5,14.7,29.97,SW,216,13.0,23.0,19,0.00,,,0.00,meteohub,2013-09-29 16:02:00,
2013-09-29 10:09:00,56.8,16.2,29.97,SW,234,19.0,24.0,20,0.00,,,0.00,meteohub,2013-09-29 16:09:00,
2013-09-29 10:15:00,57.2,16.5,29.96,WSW,245,17.0,24.0,20,0.00,,,0.00,meteohub,2013-09-29 16:15:00,
2013-09-29 10:21:00,57.0,16.3,29.96,SW,231,11.0,22.0,20,0.00,,,0.00,meteohub,2013-09-29 16:21:00,
2013-09-29 10:27:00,57.4,16.7,29.96,SW,236,13.0,27.0,20,0.00,,,0.00,meteohub,2013-09-29 16:27:00,
2013-09-29 10:33:00,57.6,15.6,29.96,SW,229,19.0,27.0,19,0.00,,,0.00,meteohub,2013-09-29 16:33:00,
2013-09-29 10:39:00,57.4,16.7,29.96,WSW,255,14.0,25.0,20,0.00,,,0.00,meteohub,2013-09-29 16:39:00,
2013-09-29 10:45:00,57.6,16.7,29.96,WSW,239,11.0,25.0,20,0.00,,,0.00,meteohub,2013-09-29 16:45:00,
2013-09-29 10:51:00,58.1,17.2,29.96,West,266,19.0,26.0,20,0.00,,,0.00,meteohub,2013-09-29 16:51:00,
2013-09-29 10:57:00,58.6,18.9,29.96,WSW,256,18.0,28.0,21,0.00,,,0.00,meteohub,2013-09-29 16:57:00,
2013-09-29 11:03:00,58.8,17.8,29.95,WSW,239,22.0,28.0,20,0.00,,,0.00,meteohub,2013-09-29 17:03:00,
2013-09-29 11:09:00,58.6,17.6,29.95,WSW,248,9.0,28.0,20,0.00,,,0.00,meteohub,2013-09-29 17:09:00,
2013-09-29 11:15:00,58.6,16.5,29.95,WSW,240,16.0,28.0,19,0.00,,,0.00,meteohub,2013-09-29 17:15:00,
2013-09-29 11:21:00,58.6,18.9,29.94,SW,234,16.0,28.0,21,0.00,,,0.00,meteohub,2013-09-29 17:21:00,
2013-09-29 11:27:00,58.5,18.7,29.94,SW,228,20.0,28.0,21,0.00,,,0.00,meteohub,2013-09-29 17:27:00,
2013-09-29 11:33:00,58.8,19.0,29.93,WSW,243,25.0,30.0,21,0.00,,,0.00,meteohub,2013-09-29 17:33:00,
2013-09-29 11:39:00,59.4,19.4,29.93,SW,230,18.0,30.0,21,0.00,,,0.00,meteohub,2013-09-29 17:39:00,
2013-09-29 11:45:00,59.4,19.4,29.93,WSW,258,12.0,28.0,21,0.00,,,0.00,meteohub,2013-09-29 17:45:00,
2013-09-29 11:51:00,59.2,19.2,29.93,WSW,237,19.0,26.0,21,0.00,,,0.00,meteohub,2013-09-29 17:51:00,
2013-09-29 11:57:00,59.5,19.6,29.92,SW,216,21.0,28.0,21,0.00,,,0.00,meteohub,2013-09-29 17:57:00,
2013-09-29 12:03:00,60.1,21.0,29.91,WSW,247,18.0,31.0,22,0.00,,,0.00,meteohub,2013-09-29 18:03:00,
2013-09-29 12:09:00,59.7,20.8,29.92,WSW,255,19.0,31.0,22,0.00,,,0.00,meteohub,2013-09-29 18:09:00,
2013-09-29 12:15:00,59.5,19.6,29.92,WNW,284,32.0,32.0,21,0.00,,,0.00,meteohub,2013-09-29 18:15:00,
2013-09-29 12:21:00,59.7,20.8,29.91,WSW,240,9.0,32.0,22,0.00,,,0.00,meteohub,2013-09-29 18:21:00,
2013-09-29 12:27:00,59.7,20.8,29.91,WSW,254,22.0,33.0,22,0.00,,,0.00,meteohub,2013-09-29 18:27:00,
2013-09-29 12:33:00,59.9,18.7,29.91,SW,224,19.0,33.0,20,0.00,,,0.00,meteohub,2013-09-29 18:33:00,
2013-09-29 12:39:00,59.7,18.5,29.91,WSW,248,17.0,33.0,20,0.00,,,0.00,meteohub,2013-09-29 18:39:00,
2013-09-29 12:45:00,59.9,18.7,29.90,WSW,243,23.0,31.0,20,0.00,,,0.00,meteohub,2013-09-29 18:45:00,
2013-09-29 12:51:00,60.1,18.9,29.90,WSW,258,23.0,31.0,20,0.00,,,0.00,meteohub,2013-09-29 18:51:00,
2013-09-29 12:57:00,60.4,19.2,29.89,WSW,243,25.0,31.0,20,0.00,,,0.00,meteohub,2013-09-29 18:57:00,
2013-09-29 13:03:00,60.4,18.0,29.89,WSW,239,18.0,31.0,19,0.00,,,0.00,meteohub,2013-09-29 19:03:00,
2013-09-29 13:09:00,60.6,19.4,29.89,WSW,258,17.0,31.0,20,0.00,,,0.00,meteohub,2013-09-29 19:09:00,
2013-09-29 13:16:00,60.6,18.1,29.88,WSW,244,27.0,36.0,19,0.00,,,0.00,meteohub,2013-09-29 19:16:00,
2013-09-29 13:22:00,60.6,18.1,29.88,SW,232,15.0,36.0,19,0.00,,,0.00,meteohub,2013-09-29 19:22:00,
2013-09-29 13:28:00,61.0,18.5,29.88,West,259,20.0,36.0,19,0.00,,,0.00,meteohub,2013-09-29 19:28:00,
2013-09-29 13:34:00,61.3,19.9,29.88,WSW,237,18.0,32.0,20,0.00,,,0.00,meteohub,2013-09-29 19:34:00,
2013-09-29 13:40:00,61.3,18.7,29.88,WSW,246,21.0,32.0,19,0.00,,,0.00,meteohub,2013-09-29 19:40:00,
2013-09-29 13:46:00,61.3,18.7,29.87,West,272,19.0,33.0,19,0.00,,,0.00,meteohub,2013-09-29 19:46:00,
2013-09-29 13:52:00,61.5,20.1,29.87,WSW,239,18.0,33.0,20,0.00,,,0.00,meteohub,2013-09-29 19:52:00,
2013-09-29 13:58:00,61.3,18.7,29.87,WSW,240,21.0,33.0,19,0.00,,,0.00,meteohub,2013-09-29 19:58:00,
2013-09-29 14:01:00,61.3,17.4,29.87,WSW,243,16.0,30.0,18,0.00,,,0.00,meteohub,2013-09-29 20:01:00,
2013-09-29 14:07:00,62.1,20.5,29.86,WSW,247,18.0,27.0,20,0.00,,,0.00,meteohub,2013-09-29 20:07:00,
2013-09-29 14:13:00,62.2,20.7,29.86,WSW,247,19.0,27.0,20,0.00,,,0.00,meteohub,2013-09-29 20:13:00,
2013-09-29 14:19:00,62.2,18.1,29.85,SW,216,19.0,26.0,18,0.00,,,0.00,meteohub,2013-09-29 20:19:00,
2013-09-29 14:25:00,62.2,19.4,29.85,WNW,289,15.0,25.0,19,0.00,,,0.00,meteohub,2013-09-29 20:25:00,
2013-09-29 14:31:00,62.1,18.0,29.85,WSW,246,17.0,29.0,18,0.00,,,0.00,meteohub,2013-09-29 20:31:00,
2013-09-29 14:37:00,62.2,19.4,29.84,SW,233,15.0,28.0,19,0.00,,,0.00,meteohub,2013-09-29 20:37:00,
2013-09-29 14:43:00,62.2,20.7,29.84,WSW,258,12.0,29.0,20,0.00,,,0.00,meteohub,2013-09-29 20:43:00,
2013-09-29 14:49:00,62.4,20.8,29.84,WSW,247,24.0,29.0,20,0.00,,,0.00,meteohub,2013-09-29 20:49:00,
2013-09-29 14:55:00,62.4,20.8,29.84,West,259,13.0,29.0,20,0.00,,,0.00,meteohub,2013-09-29 20:55:00,
2013-09-29 15:01:00,62.6,19.8,29.84,WSW,242,13.0,29.0,19,0.00,,,0.00,meteohub,2013-09-29 21:01:00,
2013-09-29 15:07:00,63.0,20.1,29.84,SSW,206,11.0,25.0,19,0.00,,,0.00,meteohub,2013-09-29 21:07:00,
2013-09-29 15:13:00,63.1,20.1,29.84,WSW,245,19.0,25.0,19,0.00,,,0.00,meteohub,2013-09-29 21:13:00,
2013-09-29 15:19:00,63.1,20.1,29.83,WSW,243,11.0,23.0,19,0.00,,,0.00,meteohub,2013-09-29 21:19:00,
2013-09-29 15:25:00,63.3,19.0,29.83,SSW,212,16.0,24.0,18,0.00,,,0.00,meteohub,2013-09-29 21:25:00,
2013-09-29 15:31:00,63.7,18.0,29.82,WSW,241,18.0,24.0,17,0.00,,,0.00,meteohub,2013-09-29 21:31:00,
2013-09-29 15:37:00,63.7,19.4,29.82,SW,228,14.0,24.0,18,0.00,,,0.00,meteohub,2013-09-29 21:37:00,
2013-09-29 15:43:00,63.9,19.6,29.82,WSW,253,12.0,27.0,18,0.00,,,0.00,meteohub,2013-09-29 21:43:00,
2013-09-29 15:49:00,64.0,18.3,29.83,SW,226,17.0,29.0,17,0.00,,,0.00,meteohub,2013-09-29 21:49:00,
2013-09-29 15:55:00,64.0,18.3,29.83,WSW,252,14.0,29.0,17,0.00,,,0.00,meteohub,2013-09-29 21:55:00,
2013-09-29 16:01:00,64.0,18.3,29.82,SW,234,13.0,29.0,17,0.00,,,0.00,meteohub,2013-09-29 22:01:00,
2013-09-29 16:07:00,63.9,19.6,29.82,WSW,242,18.0,29.0,18,0.00,,,0.00,meteohub,2013-09-29 22:07:00,
2013-09-29 16:13:00,63.9,18.1,29.82,WSW,256,18.0,26.0,17,0.00,,,0.00,meteohub,2013-09-29 22:13:00,
2013-09-29 16:19:00,63.7,18.0,29.82,SW,228,13.0,29.0,17,0.00,,,0.00,meteohub,2013-09-29 22:19:00,
2013-09-29 16:25:00,63.3,19.0,29.82,WSW,245,13.0,29.0,18,0.00,,,0.00,meteohub,2013-09-29 22:25:00,
2013-09-29 16:31:00,63.7,19.4,29.82,SW,216,12.0,28.0,18,0.00,,,0.00,meteohub,2013-09-29 22:31:00,
2013-09-29 16:37:00,64.6,18.9,29.82,SW,218,13.0,28.0,17,0.00,,,0.00,meteohub,2013-09-29 22:37:00,
2013-09-29 16:44:00,64.0,16.9,29.81,SW,229,8.0,27.0,16,0.00,,,0.00,meteohub,2013-09-29 22:44:00,
2013-09-29 16:50:00,64.2,18.5,29.81,WSW,248,18.0,27.0,17,0.00,,,0.00,meteohub,2013-09-29 22:50:00,
2013-09-29 16:56:00,64.8,17.4,29.81,West,272,13.0,24.0,16,0.00,,,0.00,meteohub,2013-09-29 22:56:00,
2013-09-29 17:02:00,64.4,17.2,29.82,WSW,250,9.0,23.0,16,0.00,,,0.00,meteohub,2013-09-29 23:02:00,
2013-09-29 17:08:00,64.0,16.9,29.82,West,260,11.0,22.0,16,0.00,,,0.00,meteohub,2013-09-29 23:08:00,
2013-09-29 17:14:00,63.1,17.6,29.82,WSW,243,18.0,24.0,17,0.00,,,0.00,meteohub,2013-09-29 23:14:00,
2013-09-29 17:20:00,62.4,17.1,29.82,WSW,255,13.0,24.0,17,0.00,,,0.00,meteohub,2013-09-29 23:20:00,
2013-09-29 17:26:00,61.9,18.0,29.82,WSW,251,12.0,26.0,18,0.00,,,0.00,meteohub,2013-09-29 23:26:00,
2013-09-29 17:32:00,61.5,17.6,29.82,WSW,257,18.0,26.0,18,0.00,,,0.00,meteohub,2013-09-29 23:32:00,
2013-09-29 17:38:00,61.9,19.2,29.83,SW,233,15.0,23.0,19,0.00,,,0.00,meteohub,2013-09-29 23:38:00,
2013-09-29 17:44:00,62.4,19.6,29.83,WSW,248,15.0,24.0,19,0.00,,,0.00,meteohub,2013-09-29 23:44:00,
2013-09-29 17:50:00,62.8,18.7,29.83,WSW,237,14.0,27.0,18,0.00,,,0.00,meteohub,2013-09-29 23:50:00,
2013-09-29 17:56:00,62.2,18.1,29.83,SW,236,8.0,22.0,18,0.00,,,0.00,meteohub,2013-09-29 23:56:00,
2013-09-29 18:02:00,61.5,17.6,29.83,SW,232,15.0,18.0,18,0.00,,,0.00,meteohub,2013-09-30 00:02:00,
2013-09-29 18:08:00,61.7,19.0,29.83,WSW,251,11.0,19.0,19,0.00,,,0.00,meteohub,2013-09-30 00:08:00,
2013-09-29 18:14:00,61.5,17.6,29.83,WSW,239,12.0,19.0,18,0.00,,,0.00,meteohub,2013-09-30 00:14:00,
2013-09-29 18:20:00,61.3,17.4,29.83,SW,232,11.0,19.0,18,0.00,,,0.00,meteohub,2013-09-30 00:20:00,
2013-09-29 18:26:00,61.0,17.2,29.83,WSW,257,10.0,22.0,18,0.00,,,0.00,meteohub,2013-09-30 00:26:00,
2013-09-29 18:32:00,60.3,17.8,29.83,WSW,255,9.0,22.0,19,0.00,,,0.00,meteohub,2013-09-30 00:32:00,
2013-09-29 18:38:00,59.5,18.5,29.83,West,267,10.0,20.0,20,0.00,,,0.00,meteohub,2013-09-30 00:38:00,
2013-09-29 18:44:00,59.4,18.3,29.83,WSW,238,7.0,19.0,20,0.00,,,0.00,meteohub,2013-09-30 00:44:00,
2013-09-29 18:50:00,58.6,18.9,29.83,WSW,245,5.0,17.0,21,0.00,,,0.00,meteohub,2013-09-30 00:50:00,
2013-09-29 18:56:00,58.1,18.3,29.83,WSW,243,11.0,15.0,21,0.00,,,0.00,meteohub,2013-09-30 00:56:00,
2013-09-29 19:02:00,57.9,17.1,29.83,SW,226,9.0,15.0,20,0.00,,,0.00,meteohub,2013-09-30 01:02:00,
2013-09-29 19:08:00,58.1,17.2,29.83,West,268,9.0,18.0,20,0.00,,,0.00,meteohub,2013-09-30 01:08:00,
2013-09-29 19:14:00,57.7,16.9,29.83,WSW,250,11.0,19.0,20,0.00,,,0.00,meteohub,2013-09-30 01:14:00,
2013-09-29 19:20:00,57.4,16.7,29.84,WSW,239,12.0,19.0,20,0.00,,,0.00,meteohub,2013-09-30 01:20:00,
2013-09-29 19:26:00,57.2,16.5,29.84,WSW,251,7.0,18.0,20,0.00,,,0.00,meteohub,2013-09-30 01:26:00,
2013-09-29 19:32:00,57.0,16.3,29.84,WSW,252,8.0,18.0,20,0.00,,,0.00,meteohub,2013-09-30 01:32:00,
2013-09-29 19:38:00,56.7,17.2,29.84,SW,236,8.0,19.0,21,0.00,,,0.00,meteohub,2013-09-30 01:38:00,
2013-09-29 19:44:00,56.5,17.1,29.84,WSW,246,7.0,19.0,21,0.00,,,0.00,meteohub,2013-09-30 01:44:00,
2013-09-29 19:50:00,56.1,16.7,29.84,WSW,255,6.0,14.0,21,0.00,,,0.00,meteohub,2013-09-30 01:50:00,
2013-09-29 19:56:00,55.9,16.5,29.84,WSW,243,5.0,14.0,21,0.00,,,0.00,meteohub,2013-09-30 01:56:00,
2013-09-29 20:02:00,55.8,16.3,29.85,SW,231,4.0,12.0,21,0.00,,,0.00,meteohub,2013-09-30 02:02:00,
2013-09-29 20:08:00,55.2,17.1,29.85,SW,232,6.0,12.0,22,0.00,,,0.00,meteohub,2013-09-30 02:08:00,
2013-09-29 20:15:00,54.9,16.7,29.85,SW,233,7.0,12.0,22,0.00,,,0.00,meteohub,2013-09-30 02:15:00,
2013-09-29 20:21:00,54.7,17.6,29.85,WSW,241,6.0,11.0,23,0.00,,,0.00,meteohub,2013-09-30 02:21:00,
2013-09-29 20:27:00,54.3,17.2,29.85,WSW,245,9.0,16.0,23,0.00,,,0.00,meteohub,2013-09-30 02:27:00,
2013-09-29 20:32:00,54.7,16.5,29.85,WSW,251,11.0,16.0,22,0.00,,,0.00,meteohub,2013-09-30 02:32:00,
2013-09-29 20:39:00,54.7,17.6,29.85,SW,232,11.0,16.0,23,0.00,,,0.00,meteohub,2013-09-30 02:39:00,
2013-09-29 20:45:00,54.9,16.7,29.85,WSW,251,7.0,16.0,22,0.00,,,0.00,meteohub,2013-09-30 02:45:00,
2013-09-29 20:51:00,54.9,16.7,29.85,SW,236,7.0,16.0,22,0.00,,,0.00,meteohub,2013-09-30 02:51:00,
2013-09-29 20:57:00,54.7,16.5,29.85,WSW,249,14.0,16.0,22,0.00,,,0.00,meteohub,2013-09-30 02:57:00,
2013-09-29 21:03:00,54.9,16.7,29.86,WSW,242,10.0,16.0,22,0.00,,,0.00,meteohub,2013-09-30 03:03:00,
2013-09-29 21:09:00,54.5,16.3,29.85,SW,232,10.0,14.0,22,0.00,,,0.00,meteohub,2013-09-30 03:09:00,
2013-09-29 21:15:00,54.3,16.3,29.84,SW,232,8.0,14.0,22,0.00,,,0.00,meteohub,2013-09-30 03:15:00,
2013-09-29 21:21:00,54.0,17.1,29.84,SW,236,9.0,15.0,23,0.00,,,0.00,meteohub,2013-09-30 03:21:00,
2013-09-29 21:27:00,54.0,18.0,29.85,SW,233,11.0,15.0,24,0.00,,,0.00,meteohub,2013-09-30 03:27:00,
2013-09-29 21:33:00,53.8,17.8,29.85,SW,228,8.0,16.0,24,0.00,,,0.00,meteohub,2013-09-30 03:33:00,
2013-09-29 21:39:00,53.8,17.8,29.85,SW,222,8.0,16.0,24,0.00,,,0.00,meteohub,2013-09-30 03:39:00,
2013-09-29 21:45:00,53.8,17.8,29.84,SW,236,7.0,14.0,24,0.00,,,0.00,meteohub,2013-09-30 03:45:00,
2013-09-29 21:51:00,54.0,18.0,29.85,WSW,239,8.0,17.0,24,0.00,,,0.00,meteohub,2013-09-30 03:51:00,
2013-09-29 21:57:00,54.0,18.0,29.84,WSW,240,8.0,17.0,24,0.00,,,0.00,meteohub,2013-09-30 03:57:00,
2013-09-29 22:02:00,54.1,18.1,29.85,WSW,240,9.0,17.0,24,0.00,,,0.00,meteohub,2013-09-30 04:02:00,
2013-09-29 22:03:00,54.1,18.1,29.85,SW,236,7.0,17.0,24,0.00,,,0.00,meteohub,2013-09-30 04:03:00,
2013-09-29 22:06:00,54.0,18.0,29.85,WSW,245,11.0,20.0,24,0.00,,,0.00,meteohub,2013-09-30 04:06:00,
2013-09-29 22:09:00,54.0,18.0,29.84,WSW,248,19.0,20.0,24,0.00,,,0.00,meteohub,2013-09-30 04:09:00,
2013-09-29 22:15:00,54.1,18.1,29.85,WSW,250,12.0,20.0,24,0.00,,,0.00,meteohub,2013-09-30 04:15:00,
2013-09-29 22:21:00,54.1,18.1,29.85,SW,230,10.0,19.0,24,0.00,,,0.00,meteohub,2013-09-30 04:21:00,
2013-09-29 22:27:00,54.1,18.1,29.85,SW,223,9.0,19.0,24,0.00,,,0.00,meteohub,2013-09-30 04:27:00,
2013-09-29 22:33:00,54.1,18.1,29.86,WSW,238,9.0,18.0,24,0.00,,,0.00,meteohub,2013-09-30 04:33:00,
2013-09-29 22:39:00,54.0,18.0,29.86,SW,234,12.0,23.0,24,0.00,,,0.00,meteohub,2013-09-30 04:39:00,
2013-09-29 22:45:00,53.8,18.9,29.85,WSW,243,16.0,22.0,25,0.00,,,0.00,meteohub,2013-09-30 04:45:00,
2013-09-29 22:51:00,53.6,18.7,29.85,SW,229,9.0,20.0,25,0.00,,,0.00,meteohub,2013-09-30 04:51:00,
2013-09-29 22:57:00,53.4,18.5,29.85,WSW,237,19.0,20.0,25,0.00,,,0.00,meteohub,2013-09-30 04:57:00,
2013-09-29 23:03:00,53.4,18.5,29.84,WSW,242,9.0,20.0,25,0.00,,,0.00,meteohub,2013-09-30 05:03:00,
2013-09-29 23:09:00,53.4,19.4,29.84,SW,231,13.0,20.0,26,0.00,,,0.00,meteohub,2013-09-30 05:09:00,
2013-09-29 23:15:00,53.1,19.0,29.85,SW,230,9.0,19.0,26,0.00,,,0.00,meteohub,2013-09-30 05:15:00,
2013-09-29 23:21:00,52.9,18.9,29.85,SW,216,8.0,19.0,26,0.00,,,0.00,meteohub,2013-09-30 05:21:00,
2013-09-29 23:28:00,52.5,18.7,29.84,SW,214,10.0,18.0,26,0.00,,,0.00,meteohub,2013-09-30 05:28:00,
2013-09-29 23:34:00,52.5,18.7,29.84,WSW,237,18.0,18.0,26,0.00,,,0.00,meteohub,2013-09-30 05:34:00,
2013-09-29 23:40:00,52.9,18.9,29.84,WSW,247,9.0,18.0,26,0.00,,,0.00,meteohub,2013-09-30 05:40:00,
2013-09-29 23:46:00,52.5,18.7,29.84,SW,235,9.0,18.0,26,0.00,,,0.00,meteohub,2013-09-30 05:46:00,
2013-09-29 23:52:00,52.3,18.5,29.84,WSW,237,9.0,17.0,26,0.00,,,0.00,meteohub,2013-09-30 05:52:00,
2013-09-29 23:58:00,52.5,18.7,29.84,SW,222,10.0,16.0,26,0.00,,,0.00,meteohub,2013-09-30 05:58:00,